Hyundai Busan — 5BZN3 — position and weather

sailwx.info

Track history (hours):
 
Tides and Currents Weather Stations Pressure Air Temp Water Temp Dewpoint Dewpoint Depression Visibility Wind Speed Wind Dir Waves Ship Positions

Hyundai Busan

Last reported at 2017-Nov-20 00:26 UTC. Time now 2017-Nov-24 02:25 UTC.
Position N 22°14' E 115°00'.

Length 304 m; draft 11.6 m.

Type: Cargo ship. MMSI: 212350000.

Date/timePositionNaut miles runAvg speedWind from/ knotsBaromVisibWave heightAir tempDewpointWater temp
2017-Nov-20 00:26N 22°14' E 115°00'819.4
2017-Nov-20 00:00N 22°15' E 114°51'1019.8
2017-Nov-19 23:30N 22°17' E 114°41'1019.3
2017-Nov-19 23:00N 22°20' E 114°31'816.3
2017-Nov-19 22:31N 22°28' E 114°28'510.8
2017-Nov-19 22:01N 22°32' E 114°24'612.4
2017-Nov-19 21:30N 22°34' E 114°18'2 0.1
2017-Nov-19 04:21N 22°34' E 114°15'0 0.2
2017-Nov-19 04:00N 22°34' E 114°15'0 0.1
2017-Nov-19 03:30N 22°34' E 114°15'0 0.0
2017-Nov-18 21:56N 22°34' E 114°15'3 6.9
2017-Nov-18 21:30N 22°34' E 114°19'714.6
2017-Nov-18 21:00N 22°30' E 114°26'4 8.7
2017-Nov-18 20:31N 22°27' E 114°28'714.6
2017-Nov-18 20:00N 22°19' E 114°28'1 1.7
2017-Nov-18 19:30N 22°18' E 114°28'1 1.1
2017-Nov-18 19:01N 22°18' E 114°28'1 1.9
2017-Nov-18 18:30N 22°18' E 114°29'1 1.2
2017-Nov-18 18:01N 22°17' E 114°29'1 1.6
2017-Nov-18 17:31N 22°17' E 114°30'1 1.3
2017-Nov-18 17:00N 22°18' E 114°31'0 0.9
2017-Nov-18 16:30N 22°18' E 114°30'1 1.1
2017-Nov-18 16:00N 22°17' E 114°31'1 1.8
2017-Nov-18 15:30N 22°18' E 114°32'1 2.5
2017-Nov-18 15:00N 22°16' E 114°32'510.5
2017-Nov-18 14:30N 22°11' E 114°30'613.0
2017-Nov-18 14:00N 22°08' E 114°24'20 9.4
2017-Nov-18 11:55N 22°19' E 114°06'2 0.2
2017-Nov-18 01:11N 22°20' E 114°07'0 2.2
2017-Nov-18 01:00N 22°19' E 114°07'3 6.2
2017-Nov-18 00:30N 22°16' E 114°07'611.6
2017-Nov-17 23:58N 22°12' E 114°11'4 8.2
2017-Nov-17 23:30N 22°09' E 114°14'510.3
2017-Nov-17 23:00N 22°08' E 114°19'510.3
2017-Nov-17 22:30N 22°06' E 114°24'611.0
2017-Nov-17 21:59N 21°60' E 114°23'511.5
2017-Nov-17 21:30N 21°55' E 114°22'611.6
2017-Nov-17 21:00N 21°49' E 114°21'  
Track history (hours):
 
Tides and Currents Weather Stations Pressure Air Temp Water Temp Dewpoint Dewpoint Depression Visibility Wind Speed Wind Dir Waves Ship Positions

Hyundai Busan

Last reported at 2017-Nov-20 00:26 UTC. Time now 2017-Nov-24 02:25 UTC.
Position N 22°14' E 115°00'.

Length 304 m; draft 11.6 m.

Type: Cargo ship. MMSI: 212350000.

Date/timePositionNaut miles runAvg speedWind from/ knotsBaromVisibWave heightAir tempDewpointWater temp
2017-Nov-20 00:26N 22°14' E 115°00'819.4
2017-Nov-20 00:00N 22°15' E 114°51'1019.8
2017-Nov-19 23:30N 22°17' E 114°41'1019.3
2017-Nov-19 23:00N 22°20' E 114°31'816.3
2017-Nov-19 22:31N 22°28' E 114°28'510.8
2017-Nov-19 22:01N 22°32' E 114°24'612.4
2017-Nov-19 21:30N 22°34' E 114°18'2 0.1
2017-Nov-19 04:21N 22°34' E 114°15'0 0.2
2017-Nov-19 04:00N 22°34' E 114°15'0 0.1
2017-Nov-19 03:30N 22°34' E 114°15'0 0.0
2017-Nov-18 21:56N 22°34' E 114°15'3 6.9
2017-Nov-18 21:30N 22°34' E 114°19'714.6
2017-Nov-18 21:00N 22°30' E 114°26'4 8.7
2017-Nov-18 20:31N 22°27' E 114°28'714.6
2017-Nov-18 20:00N 22°19' E 114°28'1 1.7
2017-Nov-18 19:30N 22°18' E 114°28'1 1.1
2017-Nov-18 19:01N 22°18' E 114°28'1 1.9
2017-Nov-18 18:30N 22°18' E 114°29'1 1.2
2017-Nov-18 18:01N 22°17' E 114°29'1 1.6
2017-Nov-18 17:31N 22°17' E 114°30'1 1.3
2017-Nov-18 17:00N 22°18' E 114°31'0 0.9
2017-Nov-18 16:30N 22°18' E 114°30'1 1.1
2017-Nov-18 16:00N 22°17' E 114°31'1 1.8
2017-Nov-18 15:30N 22°18' E 114°32'1 2.5
2017-Nov-18 15:00N 22°16' E 114°32'510.5
2017-Nov-18 14:30N 22°11' E 114°30'613.0
2017-Nov-18 14:00N 22°08' E 114°24'20 9.4
2017-Nov-18 11:55N 22°19' E 114°06'2 0.2
2017-Nov-18 01:11N 22°20' E 114°07'0 2.2
2017-Nov-18 01:00N 22°19' E 114°07'3 6.2
2017-Nov-18 00:30N 22°16' E 114°07'611.6
2017-Nov-17 23:58N 22°12' E 114°11'4 8.2
2017-Nov-17 23:30N 22°09' E 114°14'510.3
2017-Nov-17 23:00N 22°08' E 114°19'510.3
2017-Nov-17 22:30N 22°06' E 114°24'611.0
2017-Nov-17 21:59N 21°60' E 114°23'511.5
2017-Nov-17 21:30N 21°55' E 114°22'611.6
2017-Nov-17 21:00N 21°49' E 114°21'  

Dump ship's entire track history